sensor_id;sensor_type;location;lat;lon;timestamp;P1;durP1;ratioP1;P2;durP2;ratioP2
35552;SDS011;21656;46.054;13.614;2023-01-15T07:30:39;15.52;;;8.40;;
35552;SDS011;21656;46.054;13.614;2023-01-15T07:33:04;16.58;;;9.57;;
35552;SDS011;21656;46.054;13.614;2023-01-15T07:35:29;19.33;;;9.30;;
35552;SDS011;21656;46.054;13.614;2023-01-15T07:37:55;14.90;;;9.55;;
35552;SDS011;21656;46.054;13.614;2023-01-15T07:40:20;18.65;;;10.45;;
35552;SDS011;21656;46.054;13.614;2023-01-15T07:42:46;20.30;;;11.48;;
35552;SDS011;21656;46.054;13.614;2023-01-15T07:45:29;26.92;;;12.98;;
35552;SDS011;21656;46.054;13.614;2023-01-15T07:50:57;39.63;;;21.77;;
35552;SDS011;21656;46.054;13.614;2023-01-15T07:53:23;34.05;;;19.42;;
35552;SDS011;21656;46.054;13.614;2023-01-15T07:55:48;33.47;;;16.33;;
35552;SDS011;21656;46.054;13.614;2023-01-15T07:58:14;38.80;;;20.10;;
35552;SDS011;21656;46.054;13.614;2023-01-15T08:00:40;38.90;;;19.30;;
35552;SDS011;21656;46.054;13.614;2023-01-15T08:03:05;24.75;;;15.27;;
35552;SDS011;21656;46.054;13.614;2023-01-15T08:05:31;23.38;;;14.43;;
35552;SDS011;21656;46.054;13.614;2023-01-15T08:07:56;18.85;;;11.15;;
35552;SDS011;21656;46.054;13.614;2023-01-15T08:10:22;43.70;;;19.63;;
35552;SDS011;21656;46.054;13.614;2023-01-15T08:12:49;42.83;;;18.15;;
35552;SDS011;21656;46.054;13.614;2023-01-15T08:15:39;43.85;;;19.25;;
35552;SDS011;21656;46.054;13.614;2023-01-15T08:18:06;38.53;;;16.60;;
35552;SDS011;21656;46.054;13.614;2023-01-15T08:20:33;38.00;;;17.02;;
35552;SDS011;21656;46.054;13.614;2023-01-15T08:23:00;30.50;;;14.00;;
35552;SDS011;21656;46.054;13.614;2023-01-15T08:25:26;24.95;;;13.80;;
35552;SDS011;21656;46.054;13.614;2023-01-15T08:27:52;23.23;;;11.18;;
35552;SDS011;21656;46.054;13.614;2023-01-15T08:30:19;17.92;;;10.20;;
35552;SDS011;21656;46.054;13.614;2023-01-15T08:32:47;16.00;;;9.48;;
35552;SDS011;21656;46.054;13.614;2023-01-15T08:35:14;21.63;;;10.63;;
35552;SDS011;21656;46.054;13.614;2023-01-15T08:37:40;24.63;;;10.32;;
35552;SDS011;21656;46.054;13.614;2023-01-15T08:40:07;20.60;;;11.07;;
35552;SDS011;21656;46.054;13.614;2023-01-15T08:42:34;18.83;;;9.80;;
35552;SDS011;21656;46.054;13.614;2023-01-15T08:45:00;18.45;;;10.20;;
35552;SDS011;21656;46.054;13.614;2023-01-15T08:47:26;25.95;;;11.80;;
35552;SDS011;21656;46.054;13.614;2023-01-15T08:49:52;24.52;;;12.45;;
35552;SDS011;21656;46.054;13.614;2023-01-15T08:52:19;41.72;;;20.35;;
35552;SDS011;21656;46.054;13.614;2023-01-15T08:54:44;36.35;;;16.08;;
35552;SDS011;21656;46.054;13.614;2023-01-15T08:57:09;24.40;;;13.38;;
35552;SDS011;21656;46.054;13.614;2023-01-15T08:59:37;59.58;;;28.25;;
35552;SDS011;21656;46.054;13.614;2023-01-15T09:02:03;44.70;;;19.73;;
35552;SDS011;21656;46.054;13.614;2023-01-15T09:04:29;38.92;;;18.38;;
35552;SDS011;21656;46.054;13.614;2023-01-15T09:06:55;28.15;;;13.95;;
35552;SDS011;21656;46.054;13.614;2023-01-15T09:09:21;25.90;;;13.38;;
35552;SDS011;21656;46.054;13.614;2023-01-15T09:11:47;18.52;;;10.13;;
35552;SDS011;21656;46.054;13.614;2023-01-15T09:14:14;21.67;;;10.35;;
35552;SDS011;21656;46.054;13.614;2023-01-15T09:16:40;21.73;;;11.32;;
35552;SDS011;21656;46.054;13.614;2023-01-15T09:19:06;18.88;;;10.45;;
35552;SDS011;21656;46.054;13.614;2023-01-15T09:21:32;20.02;;;10.45;;
35552;SDS011;21656;46.054;13.614;2023-01-15T09:23:58;23.52;;;10.68;;
35552;SDS011;21656;46.054;13.614;2023-01-15T09:26:26;20.35;;;11.40;;
35552;SDS011;21656;46.054;13.614;2023-01-15T09:28:59;21.08;;;11.25;;
35552;SDS011;21656;46.054;13.614;2023-01-15T09:31:26;22.40;;;12.30;;
35552;SDS011;21656;46.054;13.614;2023-01-15T09:33:52;23.73;;;12.52;;
35552;SDS011;21656;46.054;13.614;2023-01-15T09:36:22;32.80;;;15.63;;
35552;SDS011;21656;46.054;13.614;2023-01-15T09:38:48;26.10;;;14.32;;
35552;SDS011;21656;46.054;13.614;2023-01-15T09:41:14;27.95;;;14.57;;
35552;SDS011;21656;46.054;13.614;2023-01-15T09:52:25;29.23;;;15.38;;
35552;SDS011;21656;46.054;13.614;2023-01-15T09:57:54;25.90;;;12.68;;
35552;SDS011;21656;46.054;13.614;2023-01-15T10:00:24;18.60;;;10.68;;
35552;SDS011;21656;46.054;13.614;2023-01-15T10:07:59;17.00;;;10.43;;
35552;SDS011;21656;46.054;13.614;2023-01-15T10:10:46;17.65;;;10.60;;
35552;SDS011;21656;46.054;13.614;2023-01-15T10:15:48;16.90;;;10.45;;
35552;SDS011;21656;46.054;13.614;2023-01-15T10:18:18;20.92;;;11.15;;
35552;SDS011;21656;46.054;13.614;2023-01-15T10:29:22;26.25;;;14.88;;
35552;SDS011;21656;46.054;13.614;2023-01-15T10:37:36;20.95;;;12.13;;
35552;SDS011;21656;46.054;13.614;2023-01-15T10:45:29;23.50;;;11.77;;
35552;SDS011;21656;46.054;13.614;2023-01-15T10:48:05;23.67;;;12.05;;
35552;SDS011;21656;46.054;13.614;2023-01-15T10:50:34;24.75;;;13.38;;
35552;SDS011;21656;46.054;13.614;2023-01-15T10:55:39;27.38;;;15.35;;
35552;SDS011;21656;46.054;13.614;2023-01-15T11:00:49;44.55;;;25.75;;
35552;SDS011;21656;46.054;13.614;2023-01-15T11:03:19;40.78;;;23.52;;
35552;SDS011;21656;46.054;13.614;2023-01-15T11:05:48;39.85;;;22.67;;
35552;SDS011;21656;46.054;13.614;2023-01-15T11:08:20;38.45;;;21.95;;
35552;SDS011;21656;46.054;13.614;2023-01-15T11:11:25;37.25;;;20.60;;
35552;SDS011;21656;46.054;13.614;2023-01-15T11:14:17;44.10;;;22.67;;
35552;SDS011;21656;46.054;13.614;2023-01-15T11:17:01;31.98;;;17.98;;
35552;SDS011;21656;46.054;13.614;2023-01-15T11:19:33;35.50;;;18.92;;
35552;SDS011;21656;46.054;13.614;2023-01-15T11:22:09;45.35;;;20.65;;
35552;SDS011;21656;46.054;13.614;2023-01-15T11:24:48;33.33;;;18.70;;
35552;SDS011;21656;46.054;13.614;2023-01-15T11:27:19;38.28;;;18.88;;
35552;SDS011;21656;46.054;13.614;2023-01-15T11:32:18;50.03;;;26.77;;
35552;SDS011;21656;46.054;13.614;2023-01-15T11:34:53;68.32;;;35.03;;
35552;SDS011;21656;46.054;13.614;2023-01-15T11:37:20;66.88;;;36.00;;
35552;SDS011;21656;46.054;13.614;2023-01-15T11:39:51;52.17;;;30.20;;
35552;SDS011;21656;46.054;13.614;2023-01-15T11:42:21;52.60;;;30.17;;
35552;SDS011;21656;46.054;13.614;2023-01-15T11:45:10;42.42;;;26.13;;
35552;SDS011;21656;46.054;13.614;2023-01-15T11:47:58;31.95;;;20.60;;
35552;SDS011;21656;46.054;13.614;2023-01-15T11:50:47;28.48;;;16.90;;
35552;SDS011;21656;46.054;13.614;2023-01-15T11:53:22;29.30;;;16.10;;
35552;SDS011;21656;46.054;13.614;2023-01-15T11:55:54;29.90;;;16.80;;
35552;SDS011;21656;46.054;13.614;2023-01-15T11:58:27;29.38;;;17.50;;
35552;SDS011;21656;46.054;13.614;2023-01-15T12:00:56;41.92;;;22.50;;
35552;SDS011;21656;46.054;13.614;2023-01-15T12:03:24;54.13;;;30.20;;
35552;SDS011;21656;46.054;13.614;2023-01-15T12:05:58;48.95;;;25.13;;
35552;SDS011;21656;46.054;13.614;2023-01-15T12:11:11;38.15;;;22.63;;
35552;SDS011;21656;46.054;13.614;2023-01-15T12:16:51;32.95;;;19.50;;
35552;SDS011;21656;46.054;13.614;2023-01-15T12:19:33;34.75;;;18.98;;
35552;SDS011;21656;46.054;13.614;2023-01-15T12:22:23;27.90;;;17.02;;
35552;SDS011;21656;46.054;13.614;2023-01-15T12:25:13;27.02;;;17.65;;
35552;SDS011;21656;46.054;13.614;2023-01-15T12:28:12;30.02;;;17.33;;
35552;SDS011;21656;46.054;13.614;2023-01-15T12:30:44;30.42;;;18.63;;
35552;SDS011;21656;46.054;13.614;2023-01-15T12:36:24;30.73;;;18.63;;
35552;SDS011;21656;46.054;13.614;2023-01-15T12:38:59;46.20;;;25.58;;
35552;SDS011;21656;46.054;13.614;2023-01-15T12:44:21;43.17;;;25.30;;
35552;SDS011;21656;46.054;13.614;2023-01-15T12:47:44;35.88;;;22.23;;
35552;SDS011;21656;46.054;13.614;2023-01-15T12:50:38;39.00;;;21.88;;
35552;SDS011;21656;46.054;13.614;2023-01-15T12:53:29;35.30;;;19.10;;
35552;SDS011;21656;46.054;13.614;2023-01-15T12:59:16;36.17;;;19.80;;
35552;SDS011;21656;46.054;13.614;2023-01-15T13:02:11;34.13;;;19.63;;
35552;SDS011;21656;46.054;13.614;2023-01-15T13:04:49;29.60;;;17.63;;
35552;SDS011;21656;46.054;13.614;2023-01-15T13:10:01;33.63;;;18.90;;
35552;SDS011;21656;46.054;13.614;2023-01-15T13:12:37;31.30;;;19.50;;
35552;SDS011;21656;46.054;13.614;2023-01-15T13:15:04;35.10;;;20.98;;
35552;SDS011;21656;46.054;13.614;2023-01-15T13:20:32;30.77;;;18.15;;
35552;SDS011;21656;46.054;13.614;2023-01-15T13:28:54;32.15;;;18.27;;
35552;SDS011;21656;46.054;13.614;2023-01-15T13:31:36;27.95;;;17.58;;
35552;SDS011;21656;46.054;13.614;2023-01-15T13:36:54;27.15;;;17.38;;
35552;SDS011;21656;46.054;13.614;2023-01-15T13:39:26;26.80;;;16.25;;
35552;SDS011;21656;46.054;13.614;2023-01-15T13:42:00;28.52;;;16.48;;
35552;SDS011;21656;46.054;13.614;2023-01-15T13:44:48;29.95;;;16.13;;
35552;SDS011;21656;46.054;13.614;2023-01-15T13:47:24;28.25;;;15.95;;
35552;SDS011;21656;46.054;13.614;2023-01-15T13:49:57;30.27;;;15.40;;
35552;SDS011;21656;46.054;13.614;2023-01-15T13:52:30;27.70;;;14.57;;
35552;SDS011;21656;46.054;13.614;2023-01-15T13:55:23;25.95;;;15.25;;
35552;SDS011;21656;46.054;13.614;2023-01-15T13:57:57;34.42;;;18.10;;
35552;SDS011;21656;46.054;13.614;2023-01-15T14:00:34;25.67;;;15.57;;
35552;SDS011;21656;46.054;13.614;2023-01-15T14:03:24;22.77;;;14.38;;
35552;SDS011;21656;46.054;13.614;2023-01-15T14:05:55;25.52;;;14.95;;
35552;SDS011;21656;46.054;13.614;2023-01-15T14:08:42;26.17;;;14.05;;
35552;SDS011;21656;46.054;13.614;2023-01-15T14:22:43;22.90;;;14.25;;
35552;SDS011;21656;46.054;13.614;2023-01-15T14:25:28;25.45;;;14.98;;
35552;SDS011;21656;46.054;13.614;2023-01-15T14:28:04;29.50;;;15.27;;
35552;SDS011;21656;46.054;13.614;2023-01-15T14:34:15;28.08;;;16.50;;
35552;SDS011;21656;46.054;13.614;2023-01-15T14:42:35;28.02;;;17.40;;
35552;SDS011;21656;46.054;13.614;2023-01-15T14:48:03;27.60;;;17.17;;
35552;SDS011;21656;46.054;13.614;2023-01-15T14:55:41;25.77;;;15.63;;
35552;SDS011;21656;46.054;13.614;2023-01-15T14:58:25;27.02;;;15.70;;
35552;SDS011;21656;46.054;13.614;2023-01-15T15:06:48;26.73;;;15.98;;
35552;SDS011;21656;46.054;13.614;2023-01-15T15:09:30;28.25;;;16.30;;
35552;SDS011;21656;46.054;13.614;2023-01-15T15:20:21;43.05;;;25.52;;
35552;SDS011;21656;46.054;13.614;2023-01-15T15:22:52;38.45;;;23.63;;
35552;SDS011;21656;46.054;13.614;2023-01-15T15:25:21;30.80;;;19.35;;
35552;SDS011;21656;46.054;13.614;2023-01-15T15:27:59;30.98;;;19.50;;
35552;SDS011;21656;46.054;13.614;2023-01-15T15:30:30;29.85;;;18.10;;
35552;SDS011;21656;46.054;13.614;2023-01-15T15:32:58;32.45;;;20.25;;
35552;SDS011;21656;46.054;13.614;2023-01-15T15:35:26;30.65;;;19.05;;
35552;SDS011;21656;46.054;13.614;2023-01-15T15:37:54;59.78;;;35.17;;
35552;SDS011;21656;46.054;13.614;2023-01-15T15:40:22;83.47;;;48.00;;
35552;SDS011;21656;46.054;13.614;2023-01-15T15:45:58;61.53;;;34.20;;
35552;SDS011;21656;46.054;13.614;2023-01-15T15:54:41;51.60;;;31.00;;
35552;SDS011;21656;46.054;13.614;2023-01-15T15:59:26;49.67;;;29.70;;
35552;SDS011;21656;46.054;13.614;2023-01-15T16:01:55;42.88;;;27.50;;
35552;SDS011;21656;46.054;13.614;2023-01-15T16:04:23;46.45;;;27.23;;
35552;SDS011;21656;46.054;13.614;2023-01-15T16:06:49;49.80;;;26.60;;
35552;SDS011;21656;46.054;13.614;2023-01-15T16:09:19;47.05;;;27.08;;
35552;SDS011;21656;46.054;13.614;2023-01-15T16:11:47;47.40;;;28.08;;
35552;SDS011;21656;46.054;13.614;2023-01-15T16:14:13;49.13;;;27.55;;
35552;SDS011;21656;46.054;13.614;2023-01-15T16:16:41;46.88;;;27.77;;
35552;SDS011;21656;46.054;13.614;2023-01-15T16:19:08;44.33;;;26.50;;
35552;SDS011;21656;46.054;13.614;2023-01-15T16:21:41;57.50;;;30.38;;
35552;SDS011;21656;46.054;13.614;2023-01-15T16:24:17;65.22;;;36.42;;
35552;SDS011;21656;46.054;13.614;2023-01-15T16:26:55;71.90;;;38.80;;
35552;SDS011;21656;46.054;13.614;2023-01-15T16:29:29;62.28;;;33.85;;
35552;SDS011;21656;46.054;13.614;2023-01-15T16:31:58;50.22;;;29.90;;
35552;SDS011;21656;46.054;13.614;2023-01-15T16:34:25;49.95;;;29.20;;
35552;SDS011;21656;46.054;13.614;2023-01-15T16:36:55;50.42;;;28.00;;
35552;SDS011;21656;46.054;13.614;2023-01-15T16:41:56;48.80;;;28.95;;
35552;SDS011;21656;46.054;13.614;2023-01-15T16:44:25;42.20;;;26.00;;
35552;SDS011;21656;46.054;13.614;2023-01-15T16:49:25;39.10;;;24.05;;
35552;SDS011;21656;46.054;13.614;2023-01-15T16:51:53;37.05;;;21.80;;
35552;SDS011;21656;46.054;13.614;2023-01-15T16:57:03;34.92;;;22.27;;
35552;SDS011;21656;46.054;13.614;2023-01-15T17:04:36;33.53;;;21.40;;
35552;SDS011;21656;46.054;13.614;2023-01-15T17:10:01;46.38;;;26.10;;
35552;SDS011;21656;46.054;13.614;2023-01-15T17:12:29;49.22;;;27.08;;
35552;SDS011;21656;46.054;13.614;2023-01-15T17:17:39;48.30;;;28.63;;
35552;SDS011;21656;46.054;13.614;2023-01-15T17:20:09;45.97;;;28.00;;
35552;SDS011;21656;46.054;13.614;2023-01-15T17:22:36;56.38;;;33.22;;
35552;SDS011;21656;46.054;13.614;2023-01-15T17:25:19;68.53;;;37.95;;
35552;SDS011;21656;46.054;13.614;2023-01-15T17:27:54;61.22;;;35.72;;
35552;SDS011;21656;46.054;13.614;2023-01-15T17:30:21;65.90;;;35.95;;
35552;SDS011;21656;46.054;13.614;2023-01-15T17:32:58;52.83;;;30.55;;
35552;SDS011;21656;46.054;13.614;2023-01-15T17:35:32;59.70;;;32.95;;
35552;SDS011;21656;46.054;13.614;2023-01-15T17:38:00;56.70;;;32.00;;
35552;SDS011;21656;46.054;13.614;2023-01-15T17:40:25;52.88;;;29.05;;
35552;SDS011;21656;46.054;13.614;2023-01-15T17:42:51;49.67;;;29.63;;
35552;SDS011;21656;46.054;13.614;2023-01-15T17:45:28;48.60;;;27.80;;
35552;SDS011;21656;46.054;13.614;2023-01-15T17:47:55;53.00;;;28.75;;
35552;SDS011;21656;46.054;13.614;2023-01-15T17:50:21;47.08;;;26.83;;
35552;SDS011;21656;46.054;13.614;2023-01-15T17:52:47;43.08;;;25.58;;
35552;SDS011;21656;46.054;13.614;2023-01-15T17:55:14;41.45;;;25.95;;
35552;SDS011;21656;46.054;13.614;2023-01-15T17:58:02;47.05;;;28.08;;
35552;SDS011;21656;46.054;13.614;2023-01-15T18:03:30;41.40;;;26.05;;
35552;SDS011;21656;46.054;13.614;2023-01-15T18:06:16;49.67;;;28.35;;
35552;SDS011;21656;46.054;13.614;2023-01-15T18:08:48;43.53;;;26.80;;
35552;SDS011;21656;46.054;13.614;2023-01-15T18:13:43;46.83;;;26.77;;
35552;SDS011;21656;46.054;13.614;2023-01-15T18:16:09;47.35;;;27.48;;
35552;SDS011;21656;46.054;13.614;2023-01-15T18:18:34;69.30;;;34.35;;
35552;SDS011;21656;46.054;13.614;2023-01-15T18:21:00;61.90;;;34.05;;
35552;SDS011;21656;46.054;13.614;2023-01-15T18:23:26;63.78;;;33.80;;
35552;SDS011;21656;46.054;13.614;2023-01-15T18:25:52;66.95;;;33.70;;
35552;SDS011;21656;46.054;13.614;2023-01-15T18:28:18;53.95;;;29.20;;
35552;SDS011;21656;46.054;13.614;2023-01-15T18:30:43;46.25;;;26.73;;
35552;SDS011;21656;46.054;13.614;2023-01-15T18:33:09;41.42;;;25.90;;
35552;SDS011;21656;46.054;13.614;2023-01-15T18:35:34;45.35;;;28.40;;
35552;SDS011;21656;46.054;13.614;2023-01-15T18:37:59;62.58;;;33.78;;
35552;SDS011;21656;46.054;13.614;2023-01-15T18:40:25;60.40;;;33.65;;
35552;SDS011;21656;46.054;13.614;2023-01-15T18:42:53;72.45;;;40.97;;
35552;SDS011;21656;46.054;13.614;2023-01-15T18:45:37;84.30;;;44.45;;
35552;SDS011;21656;46.054;13.614;2023-01-15T18:48:21;75.00;;;41.35;;
35552;SDS011;21656;46.054;13.614;2023-01-15T18:50:46;68.00;;;36.42;;
35552;SDS011;21656;46.054;13.614;2023-01-15T18:53:13;56.03;;;31.90;;
35552;SDS011;21656;46.054;13.614;2023-01-15T18:55:39;46.22;;;26.27;;
35552;SDS011;21656;46.054;13.614;2023-01-15T18:58:04;41.58;;;24.40;;
35552;SDS011;21656;46.054;13.614;2023-01-15T19:00:30;41.28;;;24.88;;
35552;SDS011;21656;46.054;13.614;2023-01-15T19:02:56;41.83;;;25.08;;
35552;SDS011;21656;46.054;13.614;2023-01-15T19:05:21;43.42;;;27.30;;
35552;SDS011;21656;46.054;13.614;2023-01-15T19:07:47;41.70;;;26.17;;
35552;SDS011;21656;46.054;13.614;2023-01-15T19:10:13;46.22;;;25.80;;
35552;SDS011;21656;46.054;13.614;2023-01-15T19:12:41;39.58;;;24.23;;
35552;SDS011;21656;46.054;13.614;2023-01-15T19:15:09;37.95;;;23.30;;
35552;SDS011;21656;46.054;13.614;2023-01-15T19:17:56;38.50;;;22.90;;
35552;SDS011;21656;46.054;13.614;2023-01-15T19:20:41;37.33;;;22.70;;
35552;SDS011;21656;46.054;13.614;2023-01-15T19:23:08;35.80;;;20.58;;
35552;SDS011;21656;46.054;13.614;2023-01-15T19:25:38;40.08;;;21.85;;
35552;SDS011;21656;46.054;13.614;2023-01-15T19:28:11;62.60;;;36.33;;
35552;SDS011;21656;46.054;13.614;2023-01-15T19:30:40;67.07;;;39.45;;
35552;SDS011;21656;46.054;13.614;2023-01-15T19:33:07;66.30;;;37.95;;
35552;SDS011;21656;46.054;13.614;2023-01-15T19:35:35;69.60;;;40.55;;
35552;SDS011;21656;46.054;13.614;2023-01-15T19:38:15;68.38;;;39.47;;
35552;SDS011;21656;46.054;13.614;2023-01-15T19:40:46;66.68;;;36.72;;
35552;SDS011;21656;46.054;13.614;2023-01-15T19:43:14;66.95;;;36.63;;
35552;SDS011;21656;46.054;13.614;2023-01-15T19:46:03;66.88;;;38.40;;
35552;SDS011;21656;46.054;13.614;2023-01-15T19:48:50;76.55;;;40.85;;
35552;SDS011;21656;46.054;13.614;2023-01-15T19:51:34;80.78;;;44.15;;
35552;SDS011;21656;46.054;13.614;2023-01-15T19:54:37;70.97;;;39.03;;
35552;SDS011;21656;46.054;13.614;2023-01-15T19:57:22;74.65;;;38.97;;
35552;SDS011;21656;46.054;13.614;2023-01-15T19:59:48;68.97;;;38.05;;
35552;SDS011;21656;46.054;13.614;2023-01-15T20:02:14;69.95;;;38.42;;
35552;SDS011;21656;46.054;13.614;2023-01-15T20:04:41;67.97;;;38.13;;
35552;SDS011;21656;46.054;13.614;2023-01-15T20:07:09;94.13;;;50.03;;
35552;SDS011;21656;46.054;13.614;2023-01-15T20:09:35;75.35;;;42.70;;
35552;SDS011;21656;46.054;13.614;2023-01-15T20:12:01;77.03;;;44.97;;
35552;SDS011;21656;46.054;13.614;2023-01-15T20:17:11;82.88;;;45.33;;
35552;SDS011;21656;46.054;13.614;2023-01-15T20:19:37;73.70;;;41.97;;
35552;SDS011;21656;46.054;13.614;2023-01-15T20:22:04;77.60;;;43.05;;
35552;SDS011;21656;46.054;13.614;2023-01-15T20:24:30;77.28;;;43.25;;
35552;SDS011;21656;46.054;13.614;2023-01-15T20:26:55;105.30;;;53.80;;
35552;SDS011;21656;46.054;13.614;2023-01-15T20:29:21;109.90;;;53.38;;
35552;SDS011;21656;46.054;13.614;2023-01-15T20:31:47;101.75;;;50.38;;
35552;SDS011;21656;46.054;13.614;2023-01-15T20:34:12;89.75;;;46.92;;
35552;SDS011;21656;46.054;13.614;2023-01-15T20:36:38;94.50;;;48.90;;
35552;SDS011;21656;46.054;13.614;2023-01-15T20:39:03;65.78;;;35.53;;
35552;SDS011;21656;46.054;13.614;2023-01-15T20:41:30;66.75;;;36.95;;
35552;SDS011;21656;46.054;13.614;2023-01-15T20:44:15;133.27;;;55.33;;
35552;SDS011;21656;46.054;13.614;2023-01-15T20:46:59;87.97;;;47.30;;
35552;SDS011;21656;46.054;13.614;2023-01-15T20:49:45;88.85;;;44.83;;
35552;SDS011;21656;46.054;13.614;2023-01-15T20:52:10;80.10;;;44.33;;
35552;SDS011;21656;46.054;13.614;2023-01-15T20:54:36;74.68;;;41.03;;
35552;SDS011;21656;46.054;13.614;2023-01-15T20:57:02;69.88;;;41.90;;
35552;SDS011;21656;46.054;13.614;2023-01-15T20:59:27;73.53;;;41.35;;
35552;SDS011;21656;46.054;13.614;2023-01-15T21:01:53;66.03;;;39.17;;
35552;SDS011;21656;46.054;13.614;2023-01-15T21:04:19;79.15;;;43.58;;
35552;SDS011;21656;46.054;13.614;2023-01-15T21:06:44;89.45;;;47.55;;
35552;SDS011;21656;46.054;13.614;2023-01-15T21:09:10;80.15;;;44.45;;
35552;SDS011;21656;46.054;13.614;2023-01-15T21:11:35;81.50;;;44.13;;
35552;SDS011;21656;46.054;13.614;2023-01-15T21:14:01;75.72;;;42.63;;
35552;SDS011;21656;46.054;13.614;2023-01-15T21:16:27;67.00;;;38.97;;
35552;SDS011;21656;46.054;13.614;2023-01-15T21:18:53;60.05;;;35.80;;
35552;SDS011;21656;46.054;13.614;2023-01-15T21:21:18;52.70;;;33.25;;
35552;SDS011;21656;46.054;13.614;2023-01-15T21:23:45;56.60;;;32.58;;
35552;SDS011;21656;46.054;13.614;2023-01-15T21:26:11;52.95;;;31.75;;
35552;SDS011;21656;46.054;13.614;2023-01-15T21:28:38;52.67;;;33.05;;
35552;SDS011;21656;46.054;13.614;2023-01-15T21:31:07;81.35;;;48.13;;
35552;SDS011;21656;46.054;13.614;2023-01-15T21:33:33;89.93;;;43.72;;
35552;SDS011;21656;46.054;13.614;2023-01-15T21:36:03;99.43;;;51.67;;
35552;SDS011;21656;46.054;13.614;2023-01-15T21:38:33;83.85;;;45.53;;
35552;SDS011;21656;46.054;13.614;2023-01-15T21:41:05;96.38;;;53.35;;
35552;SDS011;21656;46.054;13.614;2023-01-15T21:43:34;74.70;;;44.55;;
35552;SDS011;21656;46.054;13.614;2023-01-15T21:46:18;59.10;;;36.38;;
35552;SDS011;21656;46.054;13.614;2023-01-15T21:48:44;63.15;;;38.03;;
35552;SDS011;21656;46.054;13.614;2023-01-15T21:51:09;68.85;;;38.35;;
35552;SDS011;21656;46.054;13.614;2023-01-15T21:53:35;38.90;;;24.85;;
